Rechercher aéroport 
image banner adimage banner ad
image banner ad

FQIN - Inhambane / National

Situé à Inhambane, Mozambique

ICAO - FQIN, IATA - INH

Données fournies par Airmate  

Information générale

Coordonnées: S23°52'0" E35°24'60"
Élévation : 30 feet MSL.
 
Voir autres Aéroports à Inhambane Province

Données opérationnelles

Accessible au public
Heure actuelle UTC:
Heure actuelle locale:
Météo
METAR: FQIN 260800Z 05008KT 9999 SCT020 32/25 Q1015
TAF: TAF FQIN 260400Z 2606/2706 03010KT 9999 SCT015 BKN020 TX31/2613Z TN25/2703Z BECMG 2612/2614 09010KT BECMG 2700/2702 36010KT
Voir NOTAMs / SUP AIP / TFR affectant cet aéroport [VIEW]
Fréquences de communication: [VIEW]

Pistes:

Identifiant RWYQFULongueur (ft)Largeur (ft)SurfaceLDA (ft)
0647°262598SAN
24262598
16492198
34492198

Coordonnées de l'aéroport

Adresse: Inhambane Mozambique

Vue satellite de FQIN